sensor_id;sensor_type;location;lat;lon;timestamp;P1;P2;P0
40947;PMS5003;49382;-25.924;28.194;2023-04-15T00:00:57;63;61;
40947;PMS5003;49382;-25.924;28.194;2023-04-15T00:03:23;63;60;
40947;PMS5003;49382;-25.924;28.194;2023-04-15T00:05:49;80;74;
40947;PMS5003;49382;-25.924;28.194;2023-04-15T00:08:15;74;71;
40947;PMS5003;49382;-25.924;28.194;2023-04-15T00:10:40;75;72;
40947;PMS5003;49382;-25.924;28.194;2023-04-15T00:13:05;84;81;
40947;PMS5003;49382;-25.924;28.194;2023-04-15T00:15:31;82;80;
40947;PMS5003;49382;-25.924;28.194;2023-04-15T00:17:57;80;74;
40947;PMS5003;49382;-25.924;28.194;2023-04-15T00:20:22;86;78;
40947;PMS5003;49382;-25.924;28.194;2023-04-15T00:22:47;77;75;
40947;PMS5003;49382;-25.924;28.194;2023-04-15T00:25:13;75;71;
40947;PMS5003;49382;-25.924;28.194;2023-04-15T00:27:38;84;78;
40947;PMS5003;49382;-25.924;28.194;2023-04-15T00:30:04;88;82;
40947;PMS5003;49382;-25.924;28.194;2023-04-15T00:32:29;81;75;
40947;PMS5003;49382;-25.924;28.194;2023-04-15T00:34:54;64;61;
40947;PMS5003;49382;-25.924;28.194;2023-04-15T00:37:20;62;56;
40947;PMS5003;49382;-25.924;28.194;2023-04-15T00:39:45;47;43;
40947;PMS5003;49382;-25.924;28.194;2023-04-15T00:42:12;35;33;
40947;PMS5003;49382;-25.924;28.194;2023-04-15T00:44:35;31;31;
40947;PMS5003;49382;-25.924;28.194;2023-04-15T00:47:01;30;28;
40947;PMS5003;49382;-25.924;28.194;2023-04-15T00:49:26;25;24;
40947;PMS5003;49382;-25.924;28.194;2023-04-15T00:51:51;24;24;
40947;PMS5003;49382;-25.924;28.194;2023-04-15T00:54:16;23;22;
40947;PMS5003;49382;-25.924;28.194;2023-04-15T00:56:42;22;22;
40947;PMS5003;49382;-25.924;28.194;2023-04-15T00:59:07;26;25;
40947;PMS5003;49382;-25.924;28.194;2023-04-15T01:01:33;26;25;
40947;PMS5003;49382;-25.924;28.194;2023-04-15T01:03:58;27;25;
40947;PMS5003;49382;-25.924;28.194;2023-04-15T01:06:23;22;22;
40947;PMS5003;49382;-25.924;28.194;2023-04-15T01:08:49;23;22;
40947;PMS5003;49382;-25.924;28.194;2023-04-15T01:11:14;24;22;
40947;PMS5003;49382;-25.924;28.194;2023-04-15T01:13:40;21;20;
40947;PMS5003;49382;-25.924;28.194;2023-04-15T01:16:06;21;20;
40947;PMS5003;49382;-25.924;28.194;2023-04-15T01:18:30;20;19;
40947;PMS5003;49382;-25.924;28.194;2023-04-15T01:20:55;22;20;
40947;PMS5003;49382;-25.924;28.194;2023-04-15T01:23:21;18;18;
40947;PMS5003;49382;-25.924;28.194;2023-04-15T01:25:46;20;19;
40947;PMS5003;49382;-25.924;28.194;2023-04-15T01:28:12;18;17;
40947;PMS5003;49382;-25.924;28.194;2023-04-15T01:30:37;20;18;
40947;PMS5003;49382;-25.924;28.194;2023-04-15T01:33:02;20;20;
40947;PMS5003;49382;-25.924;28.194;2023-04-15T01:35:27;19;19;
40947;PMS5003;49382;-25.924;28.194;2023-04-15T01:37:52;17;17;
40947;PMS5003;49382;-25.924;28.194;2023-04-15T01:40:18;21;20;
40947;PMS5003;49382;-25.924;28.194;2023-04-15T01:42:43;18;17;
40947;PMS5003;49382;-25.924;28.194;2023-04-15T01:45:09;14;14;
40947;PMS5003;49382;-25.924;28.194;2023-04-15T01:47:34;16;16;
40947;PMS5003;49382;-25.924;28.194;2023-04-15T01:49:59;15;15;
40947;PMS5003;49382;-25.924;28.194;2023-04-15T01:52:24;14;14;
40947;PMS5003;49382;-25.924;28.194;2023-04-15T01:54:49;14;14;
40947;PMS5003;49382;-25.924;28.194;2023-04-15T01:57:14;17;16;
40947;PMS5003;49382;-25.924;28.194;2023-04-15T01:59:40;15;14;
40947;PMS5003;49382;-25.924;28.194;2023-04-15T02:02:05;14;13;
40947;PMS5003;49382;-25.924;28.194;2023-04-15T02:04:31;13;12;
40947;PMS5003;49382;-25.924;28.194;2023-04-15T02:06:56;16;16;
40947;PMS5003;49382;-25.924;28.194;2023-04-15T02:09:21;12;12;
40947;PMS5003;49382;-25.924;28.194;2023-04-15T02:11:46;14;12;
40947;PMS5003;49382;-25.924;28.194;2023-04-15T02:14:12;18;18;
40947;PMS5003;49382;-25.924;28.194;2023-04-15T02:16:37;18;17;
40947;PMS5003;49382;-25.924;28.194;2023-04-15T02:19:02;13;13;
40947;PMS5003;49382;-25.924;28.194;2023-04-15T02:21:27;17;17;
40947;PMS5003;49382;-25.924;28.194;2023-04-15T02:23:52;15;14;
40947;PMS5003;49382;-25.924;28.194;2023-04-15T02:26:17;14;12;
40947;PMS5003;49382;-25.924;28.194;2023-04-15T02:28:43;16;16;
40947;PMS5003;49382;-25.924;28.194;2023-04-15T02:31:08;15;15;
40947;PMS5003;49382;-25.924;28.194;2023-04-15T02:33:33;15;14;
40947;PMS5003;49382;-25.924;28.194;2023-04-15T02:35:59;14;14;
40947;PMS5003;49382;-25.924;28.194;2023-04-15T02:38:24;11;10;
40947;PMS5003;49382;-25.924;28.194;2023-04-15T02:40:50;11;11;
40947;PMS5003;49382;-25.924;28.194;2023-04-15T02:43:15;12;9;
40947;PMS5003;49382;-25.924;28.194;2023-04-15T02:45:40;9;9;
40947;PMS5003;49382;-25.924;28.194;2023-04-15T02:48:05;11;10;
40947;PMS5003;49382;-25.924;28.194;2023-04-15T02:50:31;9;9;
40947;PMS5003;49382;-25.924;28.194;2023-04-15T02:52:56;10;10;
40947;PMS5003;49382;-25.924;28.194;2023-04-15T02:55:21;10;10;
40947;PMS5003;49382;-25.924;28.194;2023-04-15T02:57:46;7;7;
40947;PMS5003;49382;-25.924;28.194;2023-04-15T03:00:11;9;8;
40947;PMS5003;49382;-25.924;28.194;2023-04-15T03:02:36;9;8;
40947;PMS5003;49382;-25.924;28.194;2023-04-15T03:05:01;7;7;
40947;PMS5003;49382;-25.924;28.194;2023-04-15T03:07:26;8;7;
40947;PMS5003;49382;-25.924;28.194;2023-04-15T03:09:51;7;7;
40947;PMS5003;49382;-25.924;28.194;2023-04-15T03:12:16;8;7;
40947;PMS5003;49382;-25.924;28.194;2023-04-15T03:14:41;6;6;
40947;PMS5003;49382;-25.924;28.194;2023-04-15T03:17:06;7;7;
40947;PMS5003;49382;-25.924;28.194;2023-04-15T03:19:31;6;6;
40947;PMS5003;49382;-25.924;28.194;2023-04-15T03:21:56;4;4;
40947;PMS5003;49382;-25.924;28.194;2023-04-15T03:24:21;8;6;
40947;PMS5003;49382;-25.924;28.194;2023-04-15T03:26:46;7;7;
40947;PMS5003;49382;-25.924;28.194;2023-04-15T03:29:12;7;6;
40947;PMS5003;49382;-25.924;28.194;2023-04-15T03:31:37;5;5;
40947;PMS5003;49382;-25.924;28.194;2023-04-15T03:34:02;6;5;
40947;PMS5003;49382;-25.924;28.194;2023-04-15T03:36:28;2;2;
40947;PMS5003;49382;-25.924;28.194;2023-04-15T03:38:52;4;4;
40947;PMS5003;49382;-25.924;28.194;2023-04-15T03:41:17;5;5;
40947;PMS5003;49382;-25.924;28.194;2023-04-15T03:43:42;5;5;
40947;PMS5003;49382;-25.924;28.194;2023-04-15T03:46:08;6;6;
40947;PMS5003;49382;-25.924;28.194;2023-04-15T03:48:33;6;6;
40947;PMS5003;49382;-25.924;28.194;2023-04-15T03:50:58;7;7;
40947;PMS5003;49382;-25.924;28.194;2023-04-15T03:53:23;8;8;
40947;PMS5003;49382;-25.924;28.194;2023-04-15T03:55:48;8;8;
40947;PMS5003;49382;-25.924;28.194;2023-04-15T03:58:13;8;8;
40947;PMS5003;49382;-25.924;28.194;2023-04-15T04:00:38;11;11;
40947;PMS5003;49382;-25.924;28.194;2023-04-15T04:03:03;9;9;
40947;PMS5003;49382;-25.924;28.194;2023-04-15T04:05:28;8;8;
40947;PMS5003;49382;-25.924;28.194;2023-04-15T04:07:53;9;9;
40947;PMS5003;49382;-25.924;28.194;2023-04-15T04:10:18;11;11;
40947;PMS5003;49382;-25.924;28.194;2023-04-15T04:12:43;9;9;
40947;PMS5003;49382;-25.924;28.194;2023-04-15T04:15:09;11;11;
40947;PMS5003;49382;-25.924;28.194;2023-04-15T04:17:33;13;13;
40947;PMS5003;49382;-25.924;28.194;2023-04-15T04:19:59;13;13;
40947;PMS5003;49382;-25.924;28.194;2023-04-15T04:22:24;16;16;
40947;PMS5003;49382;-25.924;28.194;2023-04-15T04:24:49;17;16;
40947;PMS5003;49382;-25.924;28.194;2023-04-15T04:27:14;16;16;
40947;PMS5003;49382;-25.924;28.194;2023-04-15T04:29:39;14;13;
40947;PMS5003;49382;-25.924;28.194;2023-04-15T04:32:05;18;17;
40947;PMS5003;49382;-25.924;28.194;2023-04-15T04:34:30;15;15;
40947;PMS5003;49382;-25.924;28.194;2023-04-15T04:36:56;20;19;
40947;PMS5003;49382;-25.924;28.194;2023-04-15T04:39:20;17;17;
40947;PMS5003;49382;-25.924;28.194;2023-04-15T04:41:46;16;16;
40947;PMS5003;49382;-25.924;28.194;2023-04-15T04:44:11;15;13;
40947;PMS5003;49382;-25.924;28.194;2023-04-15T04:46:37;15;14;
40947;PMS5003;49382;-25.924;28.194;2023-04-15T04:49:02;15;15;
40947;PMS5003;49382;-25.924;28.194;2023-04-15T04:51:27;15;15;
40947;PMS5003;49382;-25.924;28.194;2023-04-15T04:53:53;17;17;
40947;PMS5003;49382;-25.924;28.194;2023-04-15T04:56:18;16;15;
40947;PMS5003;49382;-25.924;28.194;2023-04-15T04:58:43;21;20;
40947;PMS5003;49382;-25.924;28.194;2023-04-15T05:01:08;14;14;
40947;PMS5003;49382;-25.924;28.194;2023-04-15T05:03:34;16;15;
40947;PMS5003;49382;-25.924;28.194;2023-04-15T05:05:59;18;16;
40947;PMS5003;49382;-25.924;28.194;2023-04-15T05:08:24;20;19;
40947;PMS5003;49382;-25.924;28.194;2023-04-15T05:10:50;20;20;
40947;PMS5003;49382;-25.924;28.194;2023-04-15T05:13:15;19;18;
40947;PMS5003;49382;-25.924;28.194;2023-04-15T05:15:40;21;21;
40947;PMS5003;49382;-25.924;28.194;2023-04-15T05:18:06;18;17;
40947;PMS5003;49382;-25.924;28.194;2023-04-15T05:20:31;22;22;
40947;PMS5003;49382;-25.924;28.194;2023-04-15T05:22:57;31;31;
40947;PMS5003;49382;-25.924;28.194;2023-04-15T05:25:22;31;30;
40947;PMS5003;49382;-25.924;28.194;2023-04-15T05:27:47;30;29;
40947;PMS5003;49382;-25.924;28.194;2023-04-15T05:30:12;36;35;
40947;PMS5003;49382;-25.924;28.194;2023-04-15T05:32:37;35;33;
40947;PMS5003;49382;-25.924;28.194;2023-04-15T05:35:03;36;35;
40947;PMS5003;49382;-25.924;28.194;2023-04-15T05:37:28;36;35;
40947;PMS5003;49382;-25.924;28.194;2023-04-15T05:39:53;39;38;
40947;PMS5003;49382;-25.924;28.194;2023-04-15T05:42:19;43;40;
40947;PMS5003;49382;-25.924;28.194;2023-04-15T05:44:44;40;38;
40947;PMS5003;49382;-25.924;28.194;2023-04-15T05:47:09;44;42;
40947;PMS5003;49382;-25.924;28.194;2023-04-15T05:49:35;46;42;
40947;PMS5003;49382;-25.924;28.194;2023-04-15T05:52:01;40;37;
40947;PMS5003;49382;-25.924;28.194;2023-04-15T05:54:26;38;35;
40947;PMS5003;49382;-25.924;28.194;2023-04-15T05:56:51;44;42;
40947;PMS5003;49382;-25.924;28.194;2023-04-15T05:59:17;44;42;
40947;PMS5003;49382;-25.924;28.194;2023-04-15T06:01:42;46;42;
40947;PMS5003;49382;-25.924;28.194;2023-04-15T06:04:07;41;40;
40947;PMS5003;49382;-25.924;28.194;2023-04-15T06:06:33;45;42;
40947;PMS5003;49382;-25.924;28.194;2023-04-15T06:08:59;51;48;
40947;PMS5003;49382;-25.924;28.194;2023-04-15T06:11:24;42;40;
40947;PMS5003;49382;-25.924;28.194;2023-04-15T06:13:49;47;43;
40947;PMS5003;49382;-25.924;28.194;2023-04-15T06:16:15;44;42;
40947;PMS5003;49382;-25.924;28.194;2023-04-15T06:18:40;50;44;
40947;PMS5003;49382;-25.924;28.194;2023-04-15T06:21:05;41;39;
40947;PMS5003;49382;-25.924;28.194;2023-04-15T06:23:31;41;40;
40947;PMS5003;49382;-25.924;28.194;2023-04-15T06:25:56;45;41;
40947;PMS5003;49382;-25.924;28.194;2023-04-15T06:28:21;49;48;
40947;PMS5003;49382;-25.924;28.194;2023-04-15T06:30:47;48;46;
40947;PMS5003;49382;-25.924;28.194;2023-04-15T06:33:12;41;39;
40947;PMS5003;49382;-25.924;28.194;2023-04-15T06:35:37;39;39;
40947;PMS5003;49382;-25.924;28.194;2023-04-15T06:38:03;44;42;
40947;PMS5003;49382;-25.924;28.194;2023-04-15T06:40:28;45;43;
40947;PMS5003;49382;-25.924;28.194;2023-04-15T06:42:54;45;42;
40947;PMS5003;49382;-25.924;28.194;2023-04-15T06:45:18;38;37;
40947;PMS5003;49382;-25.924;28.194;2023-04-15T06:47:44;43;41;
40947;PMS5003;49382;-25.924;28.194;2023-04-15T06:50:10;37;35;
40947;PMS5003;49382;-25.924;28.194;2023-04-15T06:52:35;32;32;
40947;PMS5003;49382;-25.924;28.194;2023-04-15T06:55:00;41;40;
40947;PMS5003;49382;-25.924;28.194;2023-04-15T06:57:26;41;39;
40947;PMS5003;49382;-25.924;28.194;2023-04-15T06:59:51;38;37;
40947;PMS5003;49382;-25.924;28.194;2023-04-15T07:02:16;44;43;
40947;PMS5003;49382;-25.924;28.194;2023-04-15T07:04:41;48;47;
40947;PMS5003;49382;-25.924;28.194;2023-04-15T07:07:07;42;41;
40947;PMS5003;49382;-25.924;28.194;2023-04-15T07:09:32;39;38;
40947;PMS5003;49382;-25.924;28.194;2023-04-15T07:11:57;37;37;
40947;PMS5003;49382;-25.924;28.194;2023-04-15T07:14:22;41;40;
40947;PMS5003;49382;-25.924;28.194;2023-04-15T07:16:47;37;36;
40947;PMS5003;49382;-25.924;28.194;2023-04-15T07:19:13;42;39;
40947;PMS5003;49382;-25.924;28.194;2023-04-15T07:21:38;49;48;
40947;PMS5003;49382;-25.924;28.194;2023-04-15T07:24:04;43;41;
40947;PMS5003;49382;-25.924;28.194;2023-04-15T07:26:29;47;44;
40947;PMS5003;49382;-25.924;28.194;2023-04-15T07:28:54;45;45;
40947;PMS5003;49382;-25.924;28.194;2023-04-15T07:31:20;42;41;
40947;PMS5003;49382;-25.924;28.194;2023-04-15T07:33:45;41;41;
40947;PMS5003;49382;-25.924;28.194;2023-04-15T07:36:11;45;43;
40947;PMS5003;49382;-25.924;28.194;2023-04-15T07:38:36;45;43;
40947;PMS5003;49382;-25.924;28.194;2023-04-15T07:41:01;45;42;
40947;PMS5003;49382;-25.924;28.194;2023-04-15T07:43:27;42;41;
40947;PMS5003;49382;-25.924;28.194;2023-04-15T07:45:52;41;41;
40947;PMS5003;49382;-25.924;28.194;2023-04-15T07:48:18;36;35;
40947;PMS5003;49382;-25.924;28.194;2023-04-15T07:50:44;37;37;
40947;PMS5003;49382;-25.924;28.194;2023-04-15T07:53:09;41;40;
40947;PMS5003;49382;-25.924;28.194;2023-04-15T07:55:34;51;50;
40947;PMS5003;49382;-25.924;28.194;2023-04-15T07:58:00;43;42;
40947;PMS5003;49382;-25.924;28.194;2023-04-15T08:00:25;38;37;
40947;PMS5003;49382;-25.924;28.194;2023-04-15T08:02:50;41;40;
40947;PMS5003;49382;-25.924;28.194;2023-04-15T08:05:16;55;55;
40947;PMS5003;49382;-25.924;28.194;2023-04-15T08:07:41;55;54;
40947;PMS5003;49382;-25.924;28.194;2023-04-15T08:10:07;37;37;
40947;PMS5003;49382;-25.924;28.194;2023-04-15T08:12:32;33;33;
40947;PMS5003;49382;-25.924;28.194;2023-04-15T08:14:58;42;41;
40947;PMS5003;49382;-25.924;28.194;2023-04-15T08:17:23;39;37;
40947;PMS5003;49382;-25.924;28.194;2023-04-15T08:19:49;37;36;
40947;PMS5003;49382;-25.924;28.194;2023-04-15T08:22:14;44;43;
40947;PMS5003;49382;-25.924;28.194;2023-04-15T08:24:39;40;39;
40947;PMS5003;49382;-25.924;28.194;2023-04-15T08:27:05;29;28;
40947;PMS5003;49382;-25.924;28.194;2023-04-15T08:29:31;31;31;
40947;PMS5003;49382;-25.924;28.194;2023-04-15T08:31:58;32;32;
40947;PMS5003;49382;-25.924;28.194;2023-04-15T08:34:22;28;28;
40947;PMS5003;49382;-25.924;28.194;2023-04-15T08:36:48;31;31;
40947;PMS5003;49382;-25.924;28.194;2023-04-15T08:39:13;29;28;
40947;PMS5003;49382;-25.924;28.194;2023-04-15T08:41:39;27;27;
40947;PMS5003;49382;-25.924;28.194;2023-04-15T08:44:04;30;29;
40947;PMS5003;49382;-25.924;28.194;2023-04-15T08:46:30;28;27;
40947;PMS5003;49382;-25.924;28.194;2023-04-15T08:48:56;27;26;
40947;PMS5003;49382;-25.924;28.194;2023-04-15T08:51:21;162;162;
40947;PMS5003;49382;-25.924;28.194;2023-04-15T08:53:46;84;84;
40947;PMS5003;49382;-25.924;28.194;2023-04-15T08:56:12;68;68;
40947;PMS5003;49382;-25.924;28.194;2023-04-15T08:58:37;181;180;
40947;PMS5003;49382;-25.924;28.194;2023-04-15T09:01:02;92;92;
40947;PMS5003;49382;-25.924;28.194;2023-04-15T09:03:28;29;28;
40947;PMS5003;49382;-25.924;28.194;2023-04-15T09:05:54;26;26;
40947;PMS5003;49382;-25.924;28.194;2023-04-15T09:08:19;26;26;
40947;PMS5003;49382;-25.924;28.194;2023-04-15T09:10:45;25;25;
40947;PMS5003;49382;-25.924;28.194;2023-04-15T09:13:11;23;23;
40947;PMS5003;49382;-25.924;28.194;2023-04-15T09:15:37;24;24;
40947;PMS5003;49382;-25.924;28.194;2023-04-15T09:18:03;22;22;
40947;PMS5003;49382;-25.924;28.194;2023-04-15T09:20:28;24;24;
40947;PMS5003;49382;-25.924;28.194;2023-04-15T09:22:54;26;26;
40947;PMS5003;49382;-25.924;28.194;2023-04-15T09:27:47;25;25;
40947;PMS5003;49382;-25.924;28.194;2023-04-15T09:30:10;25;24;
40947;PMS5003;49382;-25.924;28.194;2023-04-15T09:32:36;25;25;
40947;PMS5003;49382;-25.924;28.194;2023-04-15T09:39:53;25;25;
40947;PMS5003;49382;-25.924;28.194;2023-04-15T09:42:19;27;26;
40947;PMS5003;49382;-25.924;28.194;2023-04-15T09:44:44;28;28;
40947;PMS5003;49382;-25.924;28.194;2023-04-15T09:47:11;27;27;
40947;PMS5003;49382;-25.924;28.194;2023-04-15T09:49:37;30;29;
40947;PMS5003;49382;-25.924;28.194;2023-04-15T09:52:01;32;32;
40947;PMS5003;49382;-25.924;28.194;2023-04-15T09:56:52;25;25;
40947;PMS5003;49382;-25.924;28.194;2023-04-15T09:59:17;28;28;
40947;PMS5003;49382;-25.924;28.194;2023-04-15T10:01:44;28;28;
40947;PMS5003;49382;-25.924;28.194;2023-04-15T10:04:09;28;28;
40947;PMS5003;49382;-25.924;28.194;2023-04-15T10:06:34;29;28;
40947;PMS5003;49382;-25.924;28.194;2023-04-15T10:09:00;29;29;
40947;PMS5003;49382;-25.924;28.194;2023-04-15T10:11:27;28;27;
40947;PMS5003;49382;-25.924;28.194;2023-04-15T10:13:51;32;32;
40947;PMS5003;49382;-25.924;28.194;2023-04-15T10:16:18;32;32;
40947;PMS5003;49382;-25.924;28.194;2023-04-15T10:18:42;34;33;
40947;PMS5003;49382;-25.924;28.194;2023-04-15T10:21:07;35;35;
40947;PMS5003;49382;-25.924;28.194;2023-04-15T10:23:33;34;34;
40947;PMS5003;49382;-25.924;28.194;2023-04-15T10:25:58;33;32;
40947;PMS5003;49382;-25.924;28.194;2023-04-15T10:28:23;38;37;
40947;PMS5003;49382;-25.924;28.194;2023-04-15T10:30:49;33;32;
40947;PMS5003;49382;-25.924;28.194;2023-04-15T10:33:16;33;31;
40947;PMS5003;49382;-25.924;28.194;2023-04-15T10:35:40;30;30;
40947;PMS5003;49382;-25.924;28.194;2023-04-15T10:40:31;35;34;
40947;PMS5003;49382;-25.924;28.194;2023-04-15T10:42:57;33;32;
40947;PMS5003;49382;-25.924;28.194;2023-04-15T10:45:24;31;29;
40947;PMS5003;49382;-25.924;28.194;2023-04-15T10:47:51;32;32;
40947;PMS5003;49382;-25.924;28.194;2023-04-15T10:50:13;35;35;
40947;PMS5003;49382;-25.924;28.194;2023-04-15T10:52:39;30;30;
40947;PMS5003;49382;-25.924;28.194;2023-04-15T10:57:33;31;30;
40947;PMS5003;49382;-25.924;28.194;2023-04-15T10:59:59;30;30;
40947;PMS5003;49382;-25.924;28.194;2023-04-15T11:02:21;30;30;
40947;PMS5003;49382;-25.924;28.194;2023-04-15T11:04:51;29;29;
40947;PMS5003;49382;-25.924;28.194;2023-04-15T11:07:13;27;27;
40947;PMS5003;49382;-25.924;28.194;2023-04-15T11:09:38;27;26;
40947;PMS5003;49382;-25.924;28.194;2023-04-15T11:12:06;26;26;
40947;PMS5003;49382;-25.924;28.194;2023-04-15T11:14:29;22;22;
40947;PMS5003;49382;-25.924;28.194;2023-04-15T11:16:54;25;25;
40947;PMS5003;49382;-25.924;28.194;2023-04-15T11:19:20;25;25;
40947;PMS5003;49382;-25.924;28.194;2023-04-15T11:21:46;20;19;
40947;PMS5003;49382;-25.924;28.194;2023-04-15T11:24:11;24;24;
40947;PMS5003;49382;-25.924;28.194;2023-04-15T11:26:37;24;24;
40947;PMS5003;49382;-25.924;28.194;2023-04-15T11:29:03;25;25;
40947;PMS5003;49382;-25.924;28.194;2023-04-15T11:31:29;24;23;
40947;PMS5003;49382;-25.924;28.194;2023-04-15T11:33:55;21;21;
40947;PMS5003;49382;-25.924;28.194;2023-04-15T11:36:20;18;18;
40947;PMS5003;49382;-25.924;28.194;2023-04-15T11:38:46;22;21;
40947;PMS5003;49382;-25.924;28.194;2023-04-15T11:41:12;20;20;
40947;PMS5003;49382;-25.924;28.194;2023-04-15T11:43:37;19;19;
40947;PMS5003;49382;-25.924;28.194;2023-04-15T11:46:03;19;19;
40947;PMS5003;49382;-25.924;28.194;2023-04-15T11:48:30;19;19;
40947;PMS5003;49382;-25.924;28.194;2023-04-15T11:50:56;19;19;
40947;PMS5003;49382;-25.924;28.194;2023-04-15T11:53:21;18;18;
40947;PMS5003;49382;-25.924;28.194;2023-04-15T11:55:47;19;19;
40947;PMS5003;49382;-25.924;28.194;2023-04-15T11:58:13;19;19;
40947;PMS5003;49382;-25.924;28.194;2023-04-15T12:00:39;20;19;
40947;PMS5003;49382;-25.924;28.194;2023-04-15T12:05:30;19;18;
40947;PMS5003;49382;-25.924;28.194;2023-04-15T12:07:56;18;18;
40947;PMS5003;49382;-25.924;28.194;2023-04-15T12:10:23;17;17;
40947;PMS5003;49382;-25.924;28.194;2023-04-15T12:12:48;19;19;
40947;PMS5003;49382;-25.924;28.194;2023-04-15T12:15:13;19;19;
40947;PMS5003;49382;-25.924;28.194;2023-04-15T12:17:39;17;17;
40947;PMS5003;49382;-25.924;28.194;2023-04-15T12:20:05;17;17;
40947;PMS5003;49382;-25.924;28.194;2023-04-15T12:22:30;18;18;
40947;PMS5003;49382;-25.924;28.194;2023-04-15T12:24:56;15;15;
40947;PMS5003;49382;-25.924;28.194;2023-04-15T12:27:24;14;14;
40947;PMS5003;49382;-25.924;28.194;2023-04-15T12:29:47;17;17;
40947;PMS5003;49382;-25.924;28.194;2023-04-15T12:32:14;16;16;
40947;PMS5003;49382;-25.924;28.194;2023-04-15T12:34:39;16;16;
40947;PMS5003;49382;-25.924;28.194;2023-04-15T12:37:06;14;13;
40947;PMS5003;49382;-25.924;28.194;2023-04-15T12:39:33;14;14;
40947;PMS5003;49382;-25.924;28.194;2023-04-15T12:41:57;12;12;
40947;PMS5003;49382;-25.924;28.194;2023-04-15T12:44:23;14;14;
40947;PMS5003;49382;-25.924;28.194;2023-04-15T12:46:48;14;14;
40947;PMS5003;49382;-25.924;28.194;2023-04-15T12:49:14;13;13;
40947;PMS5003;49382;-25.924;28.194;2023-04-15T12:51:40;15;15;
40947;PMS5003;49382;-25.924;28.194;2023-04-15T12:54:05;15;15;
40947;PMS5003;49382;-25.924;28.194;2023-04-15T12:56:31;13;13;
40947;PMS5003;49382;-25.924;28.194;2023-04-15T12:58:57;13;13;
40947;PMS5003;49382;-25.924;28.194;2023-04-15T13:01:23;13;13;
40947;PMS5003;49382;-25.924;28.194;2023-04-15T13:03:49;14;14;
40947;PMS5003;49382;-25.924;28.194;2023-04-15T13:06:14;14;14;
40947;PMS5003;49382;-25.924;28.194;2023-04-15T13:08:40;15;15;
40947;PMS5003;49382;-25.924;28.194;2023-04-15T13:11:06;15;15;
40947;PMS5003;49382;-25.924;28.194;2023-04-15T13:13:32;14;14;
40947;PMS5003;49382;-25.924;28.194;2023-04-15T13:15:58;13;13;
40947;PMS5003;49382;-25.924;28.194;2023-04-15T13:18:23;14;14;
40947;PMS5003;49382;-25.924;28.194;2023-04-15T13:20:49;14;14;
40947;PMS5003;49382;-25.924;28.194;2023-04-15T13:23:15;16;16;
40947;PMS5003;49382;-25.924;28.194;2023-04-15T13:25:41;15;15;
40947;PMS5003;49382;-25.924;28.194;2023-04-15T13:28:07;13;13;
40947;PMS5003;49382;-25.924;28.194;2023-04-15T13:30:32;16;16;
40947;PMS5003;49382;-25.924;28.194;2023-04-15T13:32:58;12;12;
40947;PMS5003;49382;-25.924;28.194;2023-04-15T13:35:24;13;13;
40947;PMS5003;49382;-25.924;28.194;2023-04-15T13:37:50;13;13;
40947;PMS5003;49382;-25.924;28.194;2023-04-15T13:40:16;13;13;
40947;PMS5003;49382;-25.924;28.194;2023-04-15T13:42:41;13;12;
40947;PMS5003;49382;-25.924;28.194;2023-04-15T13:45:08;17;17;
40947;PMS5003;49382;-25.924;28.194;2023-04-15T13:47:33;16;16;
40947;PMS5003;49382;-25.924;28.194;2023-04-15T13:49:59;16;14;
40947;PMS5003;49382;-25.924;28.194;2023-04-15T13:52:25;15;15;
40947;PMS5003;49382;-25.924;28.194;2023-04-15T13:54:50;12;11;
40947;PMS5003;49382;-25.924;28.194;2023-04-15T13:57:16;13;13;
40947;PMS5003;49382;-25.924;28.194;2023-04-15T13:59:42;13;13;
40947;PMS5003;49382;-25.924;28.194;2023-04-15T14:02:08;14;14;
40947;PMS5003;49382;-25.924;28.194;2023-04-15T14:04:34;15;15;
40947;PMS5003;49382;-25.924;28.194;2023-04-15T14:06:59;14;14;
40947;PMS5003;49382;-25.924;28.194;2023-04-15T14:09:25;15;15;
40947;PMS5003;49382;-25.924;28.194;2023-04-15T14:11:51;18;18;
40947;PMS5003;49382;-25.924;28.194;2023-04-15T14:14:17;27;27;
40947;PMS5003;49382;-25.924;28.194;2023-04-15T14:16:43;24;24;
40947;PMS5003;49382;-25.924;28.194;2023-04-15T14:19:09;34;33;
40947;PMS5003;49382;-25.924;28.194;2023-04-15T14:21:33;33;33;
40947;PMS5003;49382;-25.924;28.194;2023-04-15T14:23:58;26;26;
40947;PMS5003;49382;-25.924;28.194;2023-04-15T14:26:23;26;26;
40947;PMS5003;49382;-25.924;28.194;2023-04-15T14:28:49;19;19;
40947;PMS5003;49382;-25.924;28.194;2023-04-15T14:31:15;21;21;
40947;PMS5003;49382;-25.924;28.194;2023-04-15T14:33:40;18;18;
40947;PMS5003;49382;-25.924;28.194;2023-04-15T14:36:07;29;29;
40947;PMS5003;49382;-25.924;28.194;2023-04-15T14:38:33;31;31;
40947;PMS5003;49382;-25.924;28.194;2023-04-15T14:40:57;16;16;
40947;PMS5003;49382;-25.924;28.194;2023-04-15T14:43:23;16;16;
40947;PMS5003;49382;-25.924;28.194;2023-04-15T14:45:49;16;16;
40947;PMS5003;49382;-25.924;28.194;2023-04-15T14:48:15;20;20;
40947;PMS5003;49382;-25.924;28.194;2023-04-15T14:50:40;26;26;
40947;PMS5003;49382;-25.924;28.194;2023-04-15T14:53:06;22;21;
40947;PMS5003;49382;-25.924;28.194;2023-04-15T14:55:32;20;19;
40947;PMS5003;49382;-25.924;28.194;2023-04-15T14:57:58;22;22;
40947;PMS5003;49382;-25.924;28.194;2023-04-15T15:00:24;23;23;
40947;PMS5003;49382;-25.924;28.194;2023-04-15T15:02:49;19;19;
40947;PMS5003;49382;-25.924;28.194;2023-04-15T15:05:15;24;24;
40947;PMS5003;49382;-25.924;28.194;2023-04-15T15:07:41;21;21;
40947;PMS5003;49382;-25.924;28.194;2023-04-15T15:10:07;21;21;
40947;PMS5003;49382;-25.924;28.194;2023-04-15T15:12:33;19;19;
40947;PMS5003;49382;-25.924;28.194;2023-04-15T15:14:59;18;17;
40947;PMS5003;49382;-25.924;28.194;2023-04-15T15:17:24;21;20;
40947;PMS5003;49382;-25.924;28.194;2023-04-15T15:19:49;11;11;
40947;PMS5003;49382;-25.924;28.194;2023-04-15T15:22:15;12;12;
40947;PMS5003;49382;-25.924;28.194;2023-04-15T15:24:41;13;12;
40947;PMS5003;49382;-25.924;28.194;2023-04-15T15:27:07;11;11;
40947;PMS5003;49382;-25.924;28.194;2023-04-15T15:29:33;11;11;
40947;PMS5003;49382;-25.924;28.194;2023-04-15T15:31:59;11;11;
40947;PMS5003;49382;-25.924;28.194;2023-04-15T15:34:25;13;13;
40947;PMS5003;49382;-25.924;28.194;2023-04-15T15:36:50;14;14;
40947;PMS5003;49382;-25.924;28.194;2023-04-15T15:39:16;15;14;
40947;PMS5003;49382;-25.924;28.194;2023-04-15T15:41:42;14;14;
40947;PMS5003;49382;-25.924;28.194;2023-04-15T15:44:08;14;13;
40947;PMS5003;49382;-25.924;28.194;2023-04-15T15:46:34;13;13;
40947;PMS5003;49382;-25.924;28.194;2023-04-15T15:49:01;12;12;
40947;PMS5003;49382;-25.924;28.194;2023-04-15T15:51:25;16;16;
40947;PMS5003;49382;-25.924;28.194;2023-04-15T15:53:51;17;17;